createdAt,value
2023-05-16T00:01:06.154Z,93274.97
2023-05-16T00:03:34.704Z,93265.56
2023-05-16T00:06:02.777Z,93260.53
2023-05-16T00:08:30.912Z,93267.00
2023-05-16T00:10:58.926Z,93258.16
2023-05-16T00:13:27.342Z,93256.25
2023-05-16T00:15:56.370Z,93252.75
2023-05-16T00:18:27.225Z,93250.91
2023-05-16T00:20:55.754Z,93243.66
2023-05-16T00:23:23.658Z,93245.84
2023-05-16T00:25:51.517Z,93254.44
2023-05-16T00:28:19.405Z,93251.75
2023-05-16T00:30:47.619Z,93252.88
2023-05-16T00:33:17.280Z,93244.03
2023-05-16T00:35:45.402Z,93246.41
2023-05-16T00:38:13.290Z,93252.56
2023-05-16T00:40:41.206Z,93248.03
2023-05-16T00:43:10.904Z,93245.91
2023-05-16T00:45:38.961Z,93239.44
2023-05-16T00:48:07.057Z,93211.66
2023-05-16T00:50:36.803Z,93221.81
2023-05-16T00:53:04.816Z,93218.38
2023-05-16T00:55:33.072Z,93219.41
2023-05-16T00:58:02.145Z,93215.91
2023-05-16T01:00:31.285Z,93223.66
2023-05-16T01:03:00.689Z,93217.31
2023-05-16T01:05:30.102Z,93223.94
2023-05-16T01:07:58.255Z,93220.78
2023-05-16T01:10:31.132Z,93218.31
2023-05-16T01:13:27.659Z,93198.03
2023-05-16T01:16:26.889Z,93214.31
2023-05-16T01:27:39.480Z,93216.19
2023-05-16T01:30:26.017Z,93212.16
2023-05-16T01:32:54.161Z,93212.41
2023-05-16T01:35:22.159Z,93205.47
2023-05-16T01:38:11.792Z,93196.91
2023-05-16T01:41:15.417Z,93184.38
2023-05-16T01:43:46.748Z,93188.09
2023-05-16T01:46:20.878Z,93185.44
2023-05-16T01:48:48.921Z,93180.31
2023-05-16T01:51:17.213Z,93175.75
2023-05-16T01:53:45.674Z,93184.63
2023-05-16T01:56:17.416Z,93179.28
2023-05-16T01:58:48.576Z,93177.66
2023-05-16T02:01:16.492Z,93171.78
2023-05-16T02:03:44.577Z,93160.81
2023-05-16T02:06:18.841Z,93162.44
2023-05-16T02:08:46.937Z,93166.19
2023-05-16T02:11:14.802Z,93154.97
2023-05-16T02:13:43.255Z,93160.66
2023-05-16T02:16:11.953Z,93160.47
2023-05-16T02:18:39.938Z,93163.31
2023-05-16T02:21:07.817Z,93152.16
2023-05-16T02:23:37.444Z,93159.63
2023-05-16T02:26:05.760Z,93155.38
2023-05-16T02:28:33.626Z,93159.88
2023-05-16T02:31:01.972Z,93161.22
2023-05-16T02:33:30.763Z,93158.81
2023-05-16T02:35:58.794Z,93164.50
2023-05-16T02:38:27.544Z,93165.03
2023-05-16T02:40:56.899Z,93161.25
2023-05-16T02:43:24.723Z,93151.13
2023-05-16T02:45:53.343Z,93157.50
2023-05-16T02:48:21.301Z,93163.09
2023-05-16T02:50:49.741Z,93154.00
2023-05-16T02:54:24.194Z,93154.50
2023-05-16T02:56:52.250Z,93144.66
2023-05-16T02:59:20.789Z,93147.88
2023-05-16T03:01:48.762Z,93150.34
2023-05-16T03:04:16.994Z,93146.31
2023-05-16T03:06:45.047Z,93144.69
2023-05-16T03:09:12.877Z,93145.22
2023-05-16T03:11:40.887Z,93145.19
2023-05-16T03:14:09.590Z,93148.41
2023-05-16T03:16:39.064Z,93148.41
2023-05-16T03:19:07.349Z,93148.38
2023-05-16T03:21:35.388Z,93156.09
2023-05-16T03:24:04.700Z,93152.66
2023-05-16T03:26:32.681Z,93154.28
2023-05-16T03:29:00.657Z,93153.16
2023-05-16T03:31:28.744Z,93149.97
2023-05-16T03:33:56.863Z,93154.22
2023-05-16T03:36:24.890Z,93142.22
2023-05-16T03:38:52.929Z,93150.72
2023-05-16T03:41:21.572Z,93143.53
2023-05-16T03:43:49.464Z,93141.91
2023-05-16T03:46:17.531Z,93138.19
2023-05-16T03:48:45.471Z,93137.88
2023-05-16T03:51:13.460Z,93133.88
2023-05-16T03:53:42.231Z,93136.84
2023-05-16T03:56:10.157Z,93134.69
2023-05-16T03:58:38.355Z,93126.66
2023-05-16T04:01:06.439Z,93135.22
2023-05-16T04:03:34.366Z,93148.63
2023-05-16T04:06:02.424Z,93138.69
2023-05-16T04:08:30.227Z,93131.75
2023-05-16T04:10:58.124Z,93140.22
2023-05-16T04:13:26.243Z,93144.50
2023-05-16T04:15:54.415Z,93146.63
2023-05-16T04:18:22.352Z,93157.84
2023-05-16T04:20:50.505Z,93166.19
2023-05-16T04:23:18.766Z,93157.09
2023-05-16T04:25:46.894Z,93155.25
2023-05-16T04:28:15.118Z,93153.41
2023-05-16T04:30:43.046Z,93158.72
2023-05-16T04:33:11.173Z,93150.44
2023-05-16T04:35:40.044Z,93157.63
2023-05-16T04:38:08.815Z,93147.19
2023-05-16T04:40:36.695Z,93132.00
2023-05-16T04:43:04.775Z,93153.84
2023-05-16T04:45:32.650Z,93157.31
2023-05-16T04:48:01.733Z,93157.84
2023-05-16T04:50:30.237Z,93154.38
2023-05-16T04:52:58.322Z,93146.09
2023-05-16T04:55:26.801Z,93145.00
2023-05-16T04:57:55.080Z,93150.09
2023-05-16T05:00:23.168Z,93150.13
2023-05-16T05:02:51.142Z,93144.00
2023-05-16T05:05:19.284Z,93146.41
2023-05-16T05:07:47.734Z,93148.25
2023-05-16T05:10:15.645Z,93142.41
2023-05-16T05:12:44.024Z,93144.81
2023-05-16T05:15:12.036Z,93152.56
2023-05-16T05:17:40.177Z,93157.94
2023-05-16T05:20:08.874Z,93159.53
2023-05-16T05:22:36.912Z,93158.19
2023-05-16T05:25:06.426Z,93150.72
2023-05-16T05:27:34.234Z,93158.19
2023-05-16T05:30:03.154Z,93150.16
2023-05-16T05:32:31.705Z,93140.53
2023-05-16T05:34:59.780Z,93144.50
2023-05-16T05:37:28.064Z,93136.72
2023-05-16T05:39:57.073Z,93145.50
2023-05-16T05:42:24.981Z,93142.03
2023-05-16T05:44:52.906Z,93154.59
2023-05-16T05:47:22.020Z,93150.03
2023-05-16T05:49:51.040Z,93140.13
2023-05-16T05:52:19.062Z,93127.84
2023-05-16T05:54:48.648Z,93126.50
2023-05-16T05:57:17.511Z,93119.25
2023-05-16T05:59:45.773Z,93130.22
2023-05-16T06:02:14.469Z,93134.25
2023-05-16T06:04:43.056Z,93135.06
2023-05-16T06:07:11.096Z,93125.16
2023-05-16T06:09:39.206Z,93127.03
2023-05-16T06:12:07.626Z,93139.31
2023-05-16T06:14:35.649Z,93143.31
2023-05-16T06:17:03.843Z,93142.53
2023-05-16T06:19:31.876Z,93140.88
2023-05-16T06:21:59.727Z,93133.41
2023-05-16T06:24:30.051Z,93126.16
2023-05-16T06:26:58.299Z,93124.53
2023-05-16T06:29:26.241Z,93131.94
2023-05-16T06:31:54.401Z,93122.38
2023-05-16T06:34:28.539Z,93133.03
2023-05-16T06:36:56.643Z,93130.31
2023-05-16T06:39:24.571Z,93135.34
2023-05-16T06:41:56.215Z,93131.34
2023-05-16T06:44:24.714Z,93113.91
2023-05-16T06:46:53.364Z,93122.28
2023-05-16T06:49:21.584Z,93127.56
2023-05-16T06:51:49.658Z,93135.34
2023-05-16T06:54:17.592Z,93119.06
2023-05-16T06:56:46.123Z,93116.38
2023-05-16T06:59:14.232Z,93112.78
2023-05-16T07:01:42.760Z,93094.56
2023-05-16T07:04:11.001Z,93091.50
2023-05-16T07:06:39.128Z,93126.13
2023-05-16T07:09:07.629Z,93121.31
2023-05-16T07:11:35.773Z,93116.47
2023-05-16T07:14:03.759Z,93109.53
2023-05-16T07:16:31.902Z,93113.66
2023-05-16T07:19:00.019Z,93110.47
2023-05-16T07:21:28.321Z,93102.56
2023-05-16T07:23:56.357Z,93100.34
2023-05-16T07:26:24.398Z,93093.34
2023-05-16T07:28:52.577Z,93102.69
2023-05-16T07:31:21.123Z,93095.09
2023-05-16T07:33:49.845Z,93105.78
2023-05-16T07:36:18.138Z,93109.19
2023-05-16T07:38:46.482Z,93122.56
2023-05-16T07:41:14.624Z,93122.28
2023-05-16T07:43:42.783Z,93103.13
2023-05-16T07:46:11.959Z,93097.06
2023-05-16T07:48:40.282Z,93112.59
2023-05-16T07:51:08.381Z,93121.53
2023-05-16T07:53:36.903Z,93112.16
2023-05-16T07:56:05.611Z,93106.75
2023-05-16T07:58:33.867Z,93075.28
2023-05-16T08:01:02.044Z,93079.19
2023-05-16T08:03:30.635Z,93087.00
2023-05-16T08:05:58.638Z,93072.34
2023-05-16T08:08:26.842Z,93074.91
2023-05-16T08:10:54.752Z,93082.09
2023-05-16T08:13:22.943Z,93073.47
2023-05-16T08:15:51.153Z,93082.88
2023-05-16T08:18:22.077Z,93095.53
2023-05-16T08:20:51.601Z,93091.69
2023-05-16T08:23:19.563Z,93085.72
2023-05-16T08:25:47.837Z,93095.09
2023-05-16T08:28:15.910Z,93097.34
2023-05-16T08:30:45.214Z,93088.78
2023-05-16T08:33:15.451Z,93090.94
2023-05-16T08:35:44.447Z,93106.78
2023-05-16T08:38:12.553Z,93096.47
2023-05-16T08:40:41.341Z,93092.84
2023-05-16T08:43:09.313Z,93101.91
2023-05-16T08:45:37.319Z,93087.03
2023-05-16T08:48:08.698Z,93085.69
2023-05-16T08:50:38.599Z,93078.69
2023-05-16T08:53:09.935Z,93089.25
2023-05-16T08:55:41.713Z,93084.63
2023-05-16T08:58:10.180Z,93089.94
2023-05-16T09:00:40.009Z,93087.47
2023-05-16T09:03:08.557Z,93086.78
2023-05-16T09:05:36.600Z,93088.66
2023-05-16T09:08:04.630Z,93093.06
2023-05-16T09:10:32.788Z,93078.72
2023-05-16T09:13:00.960Z,93081.59
2023-05-16T09:15:33.535Z,93069.41
2023-05-16T09:18:03.428Z,93075.97
2023-05-16T09:20:31.902Z,93076.44
2023-05-16T09:23:00.919Z,93076.84
2023-05-16T09:25:32.688Z,93062.53
2023-05-16T09:28:02.838Z,93072.78
2023-05-16T09:30:37.427Z,93089.28
2023-05-16T09:33:07.503Z,93098.31
2023-05-16T09:35:44.918Z,93083.72
2023-05-16T09:38:17.818Z,93084.88
2023-05-16T09:40:46.668Z,93094.84
2023-05-16T09:43:18.044Z,93079.22
2023-05-16T09:45:48.529Z,93075.47
2023-05-16T09:48:18.353Z,93075.88
2023-05-16T09:50:53.240Z,93069.63
2023-05-16T09:53:29.174Z,93071.72
2023-05-16T09:56:26.953Z,93073.84
2023-05-16T09:58:55.064Z,93085.13
2023-05-16T10:01:23.659Z,93079.78
2023-05-16T10:03:52.942Z,93082.03
2023-05-16T10:06:21.468Z,93077.09
2023-05-16T10:08:51.142Z,93081.22
2023-05-16T10:11:19.935Z,93085.81
2023-05-16T10:13:53.578Z,93085.28
2023-05-16T10:16:24.241Z,93069.94
2023-05-16T10:18:53.368Z,93080.13
2023-05-16T10:21:23.936Z,93066.72
2023-05-16T10:23:52.972Z,93056.50
2023-05-16T10:26:22.835Z,93061.03
2023-05-16T10:28:52.073Z,93062.63
2023-05-16T10:31:21.193Z,93051.91
2023-05-16T10:33:49.410Z,93048.22
2023-05-16T10:36:18.646Z,93039.16
2023-05-16T10:38:48.195Z,93030.53
2023-05-16T10:41:17.471Z,93025.91
2023-05-16T10:43:57.097Z,93034.81
2023-05-16T10:46:26.976Z,93032.56
2023-05-16T10:48:56.546Z,93038.22
2023-05-16T10:51:39.344Z,93018.00
2023-05-16T10:54:14.057Z,93015.28
2023-05-16T10:56:43.646Z,93011.03
2023-05-16T10:59:25.744Z,93020.94
2023-05-16T11:01:56.091Z,93023.16
2023-05-16T11:04:24.511Z,93026.91
2023-05-16T11:06:53.928Z,93021.84
2023-05-16T11:09:24.567Z,93023.63
2023-05-16T11:11:52.860Z,93029.25
2023-05-16T11:14:24.590Z,93029.59
2023-05-16T11:17:14.200Z,93020.22
2023-05-16T11:19:43.919Z,93021.41
2023-05-16T11:22:22.040Z,93014.19
2023-05-16T11:24:52.555Z,93028.16
2023-05-16T11:27:32.728Z,93017.16
2023-05-16T11:30:13.516Z,93014.38
2023-05-16T11:32:46.642Z,92997.44
2023-05-16T11:35:17.341Z,93031.44
2023-05-16T11:37:47.286Z,93024.31
2023-05-16T11:40:17.458Z,93010.13
2023-05-16T11:42:48.118Z,92991.66
2023-05-16T11:45:18.275Z,93021.31
2023-05-16T11:47:48.629Z,93037.06
2023-05-16T11:50:22.413Z,93004.81
2023-05-16T11:52:57.739Z,93014.78
2023-05-16T11:55:41.407Z,93010.25
2023-05-16T11:58:12.589Z,92990.00
2023-05-16T12:00:50.181Z,93001.28
2023-05-16T12:03:20.820Z,93002.78
2023-05-16T12:05:54.044Z,92973.69
2023-05-16T12:08:23.103Z,92998.47
2023-05-16T12:10:53.308Z,93000.72
2023-05-16T12:13:24.121Z,92993.41
2023-05-16T12:15:56.065Z,92989.88
2023-05-16T12:18:25.193Z,92968.63
2023-05-16T12:20:53.994Z,92969.22
2023-05-16T12:23:22.189Z,92979.56
2023-05-16T12:25:50.284Z,92967.00
2023-05-16T12:28:18.384Z,92970.03
2023-05-16T12:30:48.393Z,92967.31
2023-05-16T12:33:17.837Z,92965.56
2023-05-16T12:35:48.064Z,92947.75
2023-05-16T12:38:17.770Z,92954.63
2023-05-16T12:40:47.029Z,92951.56
2023-05-16T12:43:21.435Z,92935.38
2023-05-16T12:45:57.598Z,92943.97
2023-05-16T12:48:34.729Z,92938.06
2023-05-16T12:51:16.581Z,92957.63
2023-05-16T12:54:01.318Z,92970.34
2023-05-16T12:56:41.379Z,92959.22
2023-05-16T12:59:09.920Z,92954.44
2023-05-16T13:01:38.756Z,92950.16
2023-05-16T13:04:07.242Z,92960.63
2023-05-16T13:06:55.430Z,92955.56
2023-05-16T13:09:24.651Z,92958.75
2023-05-16T13:11:53.783Z,92959.69
2023-05-16T13:14:21.928Z,92973.50
2023-05-16T13:16:50.217Z,92962.06
2023-05-16T13:19:18.400Z,92966.03
2023-05-16T13:21:46.643Z,92970.03
2023-05-16T13:24:14.661Z,92977.13
2023-05-16T13:26:42.769Z,92959.88
2023-05-16T13:29:12.091Z,92958.41
2023-05-16T13:31:40.383Z,92948.22
2023-05-16T13:34:08.450Z,92961.88
2023-05-16T13:36:52.288Z,92959.22
2023-05-16T13:39:22.551Z,92955.22
2023-05-16T13:41:51.006Z,92954.19
2023-05-16T13:44:19.168Z,92966.97
2023-05-16T13:46:47.351Z,92967.66
2023-05-16T13:49:15.230Z,92975.28
2023-05-16T13:51:43.859Z,92972.31
2023-05-16T13:54:11.706Z,92976.75
2023-05-16T13:56:39.868Z,92986.09
2023-05-16T13:59:08.675Z,92982.28
2023-05-16T14:01:38.353Z,92994.34
2023-05-16T14:04:06.519Z,92990.84
2023-05-16T14:06:34.660Z,93002.28
2023-05-16T14:09:03.569Z,93009.59
2023-05-16T14:11:31.593Z,93003.06
2023-05-16T14:14:00.065Z,93018.19
2023-05-16T14:16:28.250Z,93008.97
2023-05-16T14:18:56.471Z,93005.31
2023-05-16T14:21:25.027Z,92995.50
2023-05-16T14:23:53.893Z,92972.13
2023-05-16T14:26:25.757Z,93015.81
2023-05-16T14:28:54.347Z,93016.22
2023-05-16T14:31:23.644Z,93018.53
2023-05-16T14:33:51.894Z,93031.56
2023-05-16T14:36:20.718Z,93037.94
2023-05-16T14:38:49.575Z,93005.13
2023-05-16T14:41:18.185Z,93037.94
2023-05-16T14:43:47.354Z,93051.22
2023-05-16T14:46:15.620Z,93034.06
2023-05-16T14:48:43.629Z,93046.78
2023-05-16T14:51:12.347Z,93053.69
2023-05-16T14:53:40.531Z,93047.25
2023-05-16T14:56:09.011Z,93039.16
2023-05-16T14:58:37.506Z,93035.66
2023-05-16T15:01:06.308Z,93034.56
2023-05-16T15:03:46.965Z,93038.09
2023-05-16T15:06:22.785Z,93021.31
2023-05-16T15:08:51.153Z,93028.31
2023-05-16T15:11:19.961Z,93032.13
2023-05-16T15:13:49.146Z,93038.78
2023-05-16T15:16:17.976Z,93038.75
2023-05-16T15:18:47.349Z,93029.69
2023-05-16T15:21:16.019Z,93031.50
2023-05-16T15:23:44.953Z,93035.75
2023-05-16T15:26:13.415Z,93028.66
2023-05-16T15:28:41.825Z,93015.06
2023-05-16T15:31:10.877Z,92993.91
2023-05-16T15:33:39.236Z,93021.44
2023-05-16T15:36:07.873Z,93023.97
2023-05-16T15:38:36.929Z,93028.88
2023-05-16T15:41:18.758Z,93027.13
2023-05-16T15:43:55.079Z,93030.13
2023-05-16T15:46:23.665Z,93018.19
2023-05-16T15:48:52.894Z,93023.91
2023-05-16T15:51:21.535Z,93024.69
2023-05-16T15:53:50.257Z,93029.94
2023-05-16T15:56:18.811Z,93026.44
2023-05-16T15:58:47.124Z,93028.19
2023-05-16T16:01:15.502Z,93039.63
2023-05-16T16:03:44.375Z,93043.66
2023-05-16T16:06:12.789Z,93049.94
2023-05-16T16:08:41.257Z,93045.75
2023-05-16T16:11:09.976Z,93047.34
2023-05-16T16:13:38.731Z,93059.66
2023-05-16T16:16:07.579Z,93053.00
2023-05-16T16:18:35.769Z,93052.28
2023-05-16T16:21:04.546Z,93062.84
2023-05-16T16:23:33.407Z,93058.75
2023-05-16T16:26:02.120Z,93061.22
2023-05-16T16:28:30.771Z,93048.53
2023-05-16T16:30:59.462Z,93035.56
2023-05-16T16:33:27.954Z,93031.94
2023-05-16T16:35:56.451Z,93036.63
2023-05-16T16:38:27.006Z,93028.84
2023-05-16T16:40:55.667Z,93027.91
2023-05-16T16:43:24.173Z,93022.25
2023-05-16T16:45:53.096Z,93023.84
2023-05-16T16:48:21.565Z,93015.84
2023-05-16T16:50:50.171Z,93018.75
2023-05-16T16:53:20.057Z,93018.84
2023-05-16T16:55:48.635Z,93021.50
2023-05-16T16:58:17.210Z,93012.16
2023-05-16T17:00:45.985Z,93005.56
2023-05-16T17:03:14.554Z,93007.94
2023-05-16T17:05:43.458Z,93009.16
2023-05-16T17:08:12.532Z,92996.72
2023-05-16T17:10:41.416Z,92991.31
2023-05-16T17:13:12.679Z,92977.38
2023-05-16T17:15:41.848Z,92955.56
2023-05-16T17:18:10.561Z,92968.69
2023-05-16T17:20:39.215Z,92950.25
2023-05-16T17:23:07.621Z,92940.00
2023-05-16T17:25:35.951Z,92930.63
2023-05-16T17:28:04.326Z,92928.03
2023-05-16T17:30:32.975Z,92956.47
2023-05-16T17:33:01.580Z,92952.91
2023-05-16T17:35:30.073Z,92947.22
2023-05-16T17:37:59.555Z,92943.44
2023-05-16T17:40:28.127Z,92933.47
2023-05-16T17:42:56.734Z,92936.03
2023-05-16T17:45:28.943Z,92951.88
2023-05-16T17:47:59.594Z,92952.88
2023-05-16T17:50:29.886Z,92962.91
2023-05-16T17:52:59.248Z,92971.97
2023-05-16T17:55:28.187Z,92974.16
2023-05-16T17:57:56.912Z,92981.31
2023-05-16T18:00:25.493Z,92974.28
2023-05-16T18:02:54.464Z,92983.50
2023-05-16T18:05:23.673Z,92978.75
2023-05-16T18:07:52.573Z,92979.09
2023-05-16T18:10:21.478Z,92970.81
2023-05-16T18:12:49.736Z,92952.78
2023-05-16T18:15:19.005Z,92927.47
2023-05-16T18:17:47.367Z,92957.75
2023-05-16T18:20:16.044Z,92960.78
2023-05-16T18:22:44.324Z,92913.66
2023-05-16T18:25:13.018Z,92935.59
2023-05-16T18:27:41.960Z,92934.38
2023-05-16T18:30:13.141Z,92921.72
2023-05-16T18:32:41.984Z,92932.53
2023-05-16T18:35:10.924Z,92918.91
2023-05-16T18:37:39.249Z,92924.84
2023-05-16T18:40:08.600Z,92923.03
2023-05-16T18:42:36.928Z,92912.44
2023-05-16T18:45:05.644Z,92915.75
2023-05-16T18:47:34.515Z,92909.50
2023-05-16T18:50:03.888Z,92885.81
2023-05-16T18:52:34.719Z,92889.22
2023-05-16T18:55:03.296Z,92910.09
2023-05-16T18:57:31.820Z,92923.81
2023-05-16T19:00:01.277Z,92925.09
2023-05-16T19:02:41.662Z,92912.09
2023-05-16T19:05:11.786Z,92932.59
2023-05-16T19:07:41.284Z,92909.97
2023-05-16T19:10:10.252Z,92913.50
2023-05-16T19:12:38.875Z,92915.03
2023-05-16T19:15:08.173Z,92912.22
2023-05-16T19:17:36.823Z,92910.81
2023-05-16T19:20:07.056Z,92915.91
2023-05-16T19:22:36.559Z,92906.69
2023-05-16T19:25:06.259Z,92910.97
2023-05-16T19:27:34.704Z,92911.84
2023-05-16T19:30:03.128Z,92902.63
2023-05-16T19:32:32.013Z,92907.47
2023-05-16T19:35:00.703Z,92914.25
2023-05-16T19:37:29.366Z,92915.53
2023-05-16T19:39:57.872Z,92888.88
2023-05-16T19:42:26.481Z,92896.75
2023-05-16T19:44:55.055Z,92909.41
2023-05-16T19:47:23.353Z,92909.41
2023-05-16T19:49:51.988Z,92910.94
2023-05-16T19:52:20.547Z,92915.19
2023-05-16T19:54:54.263Z,92905.94
2023-05-16T19:57:22.959Z,92911.16
2023-05-16T19:59:51.822Z,92913.41
2023-05-16T20:02:21.304Z,92913.13
2023-05-16T20:04:52.508Z,92920.28
2023-05-16T20:07:21.131Z,92927.44
2023-05-16T20:09:49.690Z,92929.91
2023-05-16T20:12:18.363Z,92918.34
2023-05-16T20:14:47.038Z,92914.25
2023-05-16T20:17:18.512Z,92918.75
2023-05-16T20:19:47.431Z,92933.47
2023-05-16T20:22:15.682Z,92937.66
2023-05-16T20:24:44.332Z,92914.50
2023-05-16T20:27:12.911Z,92915.13
2023-05-16T20:29:41.057Z,92905.50
2023-05-16T20:32:09.179Z,92923.66
2023-05-16T20:34:39.134Z,92925.84
2023-05-16T20:37:08.442Z,92924.16
2023-05-16T20:39:36.597Z,92934.59
2023-05-16T20:42:13.673Z,92923.00
2023-05-16T20:44:42.045Z,92926.38
2023-05-16T20:47:10.505Z,92927.94
2023-05-16T20:49:40.091Z,92923.00
2023-05-16T20:52:09.010Z,92915.28
2023-05-16T20:54:37.374Z,92911.69
2023-05-16T20:57:05.978Z,92904.53
2023-05-16T20:59:34.482Z,92884.56
2023-05-16T21:02:06.014Z,92909.19
2023-05-16T21:04:34.636Z,92914.28
2023-05-16T21:07:04.253Z,92902.09
2023-05-16T21:09:34.262Z,92907.53
2023-05-16T21:12:02.554Z,92900.72
2023-05-16T21:14:30.722Z,92910.78
2023-05-16T21:16:58.730Z,92897.41
2023-05-16T21:19:26.763Z,92893.31
2023-05-16T21:21:54.886Z,92895.63
2023-05-16T21:24:22.934Z,92908.16
2023-05-16T21:26:50.903Z,92910.00
2023-05-16T21:29:18.809Z,92915.84
2023-05-16T21:31:46.896Z,92910.28
2023-05-16T21:34:15.026Z,92919.41
2023-05-16T21:36:42.974Z,92925.28
2023-05-16T21:39:11.515Z,92938.38
2023-05-16T21:41:39.484Z,92939.16
2023-05-16T21:44:07.517Z,92922.47
2023-05-16T21:46:35.461Z,92936.69
2023-05-16T21:49:03.510Z,92945.00
2023-05-16T21:51:31.860Z,92922.34
2023-05-16T21:53:59.938Z,92933.69
2023-05-16T21:56:28.192Z,92932.84
2023-05-16T21:58:56.261Z,92932.41
2023-05-16T22:01:26.612Z,92943.19
2023-05-16T22:03:58.096Z,92955.84
2023-05-16T22:06:26.397Z,92960.69
2023-05-16T22:08:55.492Z,92951.50
2023-05-16T22:11:23.489Z,92942.84
2023-05-16T22:13:51.574Z,92932.03
2023-05-16T22:16:19.674Z,92939.59
2023-05-16T22:18:47.765Z,92937.22
2023-05-16T22:21:16.592Z,92950.59
2023-05-16T22:23:44.656Z,92949.28
2023-05-16T22:26:12.753Z,92944.59
2023-05-16T22:28:40.889Z,92960.19
2023-05-16T22:31:08.870Z,92960.81
2023-05-16T22:33:37.050Z,92962.28
2023-05-16T22:36:05.378Z,92953.78
2023-05-16T22:38:33.361Z,92959.31
2023-05-16T22:41:01.323Z,92973.16
2023-05-16T22:43:29.304Z,92962.41
2023-05-16T22:46:06.359Z,92952.38
2023-05-16T22:48:34.668Z,92958.34
2023-05-16T22:51:02.897Z,92961.44
2023-05-16T22:53:32.425Z,92955.75
2023-05-16T22:56:00.941Z,92949.06
2023-05-16T22:58:28.947Z,92950.56
2023-05-16T23:00:58.293Z,92951.09
2023-05-16T23:03:27.902Z,92943.53
2023-05-16T23:05:56.398Z,92954.53
2023-05-16T23:08:24.473Z,92951.56
2023-05-16T23:10:52.341Z,92933.00
2023-05-16T23:13:20.319Z,92927.22
2023-05-16T23:15:48.252Z,92931.69
2023-05-16T23:18:16.376Z,92924.66
2023-05-16T23:20:44.519Z,92934.94
2023-05-16T23:23:12.557Z,92924.66
2023-05-16T23:25:41.066Z,92925.69
2023-05-16T23:28:09.204Z,92928.09
2023-05-16T23:30:37.384Z,92926.97
2023-05-16T23:33:05.370Z,92929.97
2023-05-16T23:35:33.473Z,92935.38
2023-05-16T23:38:01.697Z,92944.53
2023-05-16T23:40:49.189Z,92950.50
2023-05-16T23:43:17.404Z,92943.78
2023-05-16T23:45:45.426Z,92947.75
2023-05-16T23:48:13.529Z,92951.03
2023-05-16T23:50:41.513Z,92957.41
2023-05-16T23:53:09.509Z,92954.56
2023-05-16T23:55:37.589Z,92960.72
2023-05-16T23:58:05.510Z,92957.75
